createdAt,value
2023-02-01T00:01:08.779Z,4.90
2023-02-01T00:03:36.038Z,4.90
2023-02-01T00:06:03.308Z,4.90
2023-02-01T00:08:30.793Z,4.90
2023-02-01T00:11:04.465Z,4.90
2023-02-01T00:13:34.083Z,4.90
2023-02-01T00:16:27.239Z,4.90
2023-02-01T00:19:04.082Z,4.90
2023-02-01T00:21:31.604Z,4.90
2023-02-01T00:23:59.417Z,4.90
2023-02-01T00:26:39.148Z,4.80
2023-02-01T00:29:11.770Z,4.80
2023-02-01T00:31:38.843Z,4.80
2023-02-01T00:34:06.318Z,4.80
2023-02-01T00:36:33.755Z,4.80
2023-02-01T00:39:00.837Z,4.80
2023-02-01T00:41:28.088Z,4.80
2023-02-01T00:43:55.424Z,4.80
2023-02-01T00:46:22.929Z,4.80
2023-02-01T00:48:50.757Z,4.80
2023-02-01T00:51:22.161Z,4.80
2023-02-01T00:53:49.709Z,4.90
2023-02-01T00:56:17.419Z,4.80
2023-02-01T00:58:46.054Z,4.80
2023-02-01T01:01:21.524Z,4.80
2023-02-01T01:03:55.071Z,4.70
2023-02-01T01:06:28.579Z,4.70
2023-02-01T01:08:58.605Z,4.60
2023-02-01T01:11:29.827Z,4.60
2023-02-01T01:13:59.326Z,4.50
2023-02-01T01:16:29.044Z,4.50
2023-02-01T01:18:57.005Z,4.40
2023-02-01T01:21:24.680Z,4.50
2023-02-01T01:23:52.347Z,4.50
2023-02-01T01:26:25.894Z,4.50
2023-02-01T01:28:53.436Z,4.60
2023-02-01T01:31:21.851Z,4.60
2023-02-01T01:33:51.921Z,4.60
2023-02-01T01:36:19.955Z,4.70
2023-02-01T01:38:47.541Z,4.70
2023-02-01T01:41:19.369Z,4.80
2023-02-01T01:44:05.768Z,4.80
2023-02-01T01:46:39.016Z,4.80
2023-02-01T01:49:14.136Z,4.80
2023-02-01T01:51:52.714Z,4.80
2023-02-01T01:54:30.718Z,4.80
2023-02-01T01:57:05.965Z,4.80
2023-02-01T01:59:37.516Z,4.80
2023-02-01T02:02:04.996Z,4.80
2023-02-01T02:04:34.622Z,4.80
2023-02-01T02:07:22.723Z,4.80
2023-02-01T02:10:00.157Z,4.90
2023-02-01T02:12:28.949Z,4.80
2023-02-01T02:14:56.827Z,4.90
2023-02-01T02:17:47.391Z,4.90
2023-02-01T02:20:21.883Z,4.90
2023-02-01T02:23:27.678Z,4.90
2023-02-01T02:26:10.100Z,4.90
2023-02-01T02:29:20.414Z,4.70
2023-02-01T02:32:06.251Z,4.30
2023-02-01T02:34:47.546Z,4.00
2023-02-01T02:37:23.906Z,3.90
2023-02-01T02:40:27.668Z,3.70
2023-02-01T02:43:40.557Z,3.70
2023-02-01T02:46:59.152Z,3.60
2023-02-01T02:49:40.400Z,3.60
2023-02-01T02:52:44.088Z,3.70
2023-02-01T02:55:11.992Z,3.70
2023-02-01T02:58:01.398Z,3.70
2023-02-01T03:00:51.894Z,3.70
2023-02-01T03:03:37.889Z,3.70
2023-02-01T03:06:06.642Z,3.80
2023-02-01T03:08:34.587Z,3.80
2023-02-01T03:11:09.848Z,3.80
2023-02-01T03:13:57.134Z,3.80
2023-02-01T03:16:37.820Z,3.90
2023-02-01T03:19:21.697Z,3.90
2023-02-01T03:22:15.080Z,4.00
2023-02-01T03:24:55.342Z,4.00
2023-02-01T03:27:33.656Z,4.10
2023-02-01T03:30:21.879Z,4.10
2023-02-01T03:33:02.085Z,4.20
2023-02-01T03:35:51.284Z,4.30
2023-02-01T03:38:39.704Z,4.30
2023-02-01T03:41:24.907Z,4.40
2023-02-01T03:44:46.511Z,4.30
2023-02-01T03:47:27.178Z,4.40
2023-02-01T03:50:00.731Z,4.60
2023-02-01T03:52:36.543Z,4.60
2023-02-01T03:55:06.891Z,4.60
2023-02-01T03:57:39.362Z,4.60
2023-02-01T04:00:09.117Z,4.70
2023-02-01T04:02:41.550Z,4.70
2023-02-01T04:05:09.980Z,4.80
2023-02-01T04:07:39.609Z,4.80
2023-02-01T04:10:07.715Z,4.80
2023-02-01T04:12:34.912Z,4.90
2023-02-01T04:15:02.168Z,4.90
2023-02-01T04:17:29.392Z,4.90
2023-02-01T04:19:56.625Z,4.90
2023-02-01T04:22:23.851Z,4.90
2023-02-01T04:24:50.970Z,4.90
2023-02-01T04:27:18.222Z,4.90
2023-02-01T04:29:46.172Z,4.90
2023-02-01T04:32:13.347Z,4.90
2023-02-01T04:34:40.528Z,5.00
2023-02-01T04:37:08.228Z,4.90
2023-02-01T04:39:35.432Z,5.00
2023-02-01T04:42:02.574Z,4.90
2023-02-01T04:44:29.672Z,4.90
2023-02-01T04:46:56.849Z,4.90
2023-02-01T04:49:26.373Z,5.00
2023-02-01T04:51:53.684Z,5.00
2023-02-01T04:54:20.765Z,5.00
2023-02-01T04:56:47.917Z,5.00
2023-02-01T04:59:15.166Z,5.00
2023-02-01T05:01:42.417Z,5.00
2023-02-01T05:04:09.620Z,5.00
2023-02-01T05:06:36.857Z,5.10
2023-02-01T05:09:04.148Z,5.20
2023-02-01T05:11:49.857Z,5.20
2023-02-01T05:14:17.127Z,5.20
2023-02-01T05:16:44.242Z,5.30
2023-02-01T05:19:11.371Z,5.30
2023-02-01T05:21:38.573Z,5.30
2023-02-01T05:24:14.059Z,5.30
2023-02-01T05:26:41.996Z,5.30
2023-02-01T05:29:10.675Z,5.40
2023-02-01T05:31:38.816Z,5.30
2023-02-01T05:34:08.794Z,5.30
2023-02-01T05:36:36.004Z,5.30
2023-02-01T05:39:03.317Z,5.30
2023-02-01T05:41:30.658Z,5.30
2023-02-01T05:43:57.801Z,5.30
2023-02-01T05:46:25.034Z,5.30
2023-02-01T05:48:52.266Z,5.30
2023-02-01T05:51:19.608Z,5.30
2023-02-01T05:53:46.780Z,5.30
2023-02-01T05:56:13.941Z,5.30
2023-02-01T05:58:41.108Z,5.30
2023-02-01T06:01:08.629Z,5.30
2023-02-01T06:03:36.461Z,5.30
2023-02-01T06:06:03.908Z,5.20
2023-02-01T06:08:31.048Z,5.20
2023-02-01T06:11:03.579Z,5.20
2023-02-01T06:13:33.339Z,5.10
2023-02-01T06:16:08.005Z,5.00
2023-02-01T06:18:36.619Z,5.00
2023-02-01T06:21:04.254Z,5.00
2023-02-01T06:23:31.921Z,4.90
2023-02-01T06:26:01.741Z,4.90
2023-02-01T06:28:30.135Z,4.90
2023-02-01T06:30:59.125Z,4.90
2023-02-01T06:33:26.928Z,4.90
2023-02-01T06:36:03.180Z,4.90
2023-02-01T06:38:31.457Z,4.80
2023-02-01T06:40:59.222Z,4.80
2023-02-01T06:43:28.324Z,4.90
2023-02-01T06:46:02.279Z,4.80
2023-02-01T06:48:29.797Z,4.80
2023-02-01T06:50:57.149Z,4.70
2023-02-01T06:53:24.543Z,4.60
2023-02-01T06:56:00.931Z,4.60
2023-02-01T06:58:33.756Z,4.60
2023-02-01T07:01:09.409Z,4.50
2023-02-01T07:03:37.296Z,4.50
2023-02-01T07:06:05.506Z,4.50
2023-02-01T07:08:35.404Z,4.50
2023-02-01T07:11:25.040Z,4.40
2023-02-01T07:13:52.120Z,4.40
2023-02-01T07:16:21.185Z,4.40
2023-02-01T07:18:48.901Z,4.40
2023-02-01T07:21:16.148Z,4.40
2023-02-01T07:23:43.316Z,4.40
2023-02-01T07:26:14.126Z,4.40
2023-02-01T07:28:42.169Z,4.40
2023-02-01T07:31:22.818Z,4.40
2023-02-01T07:33:53.642Z,4.40
2023-02-01T07:36:21.023Z,4.40
2023-02-01T07:38:48.676Z,4.50
2023-02-01T07:41:16.600Z,4.50
2023-02-01T07:43:44.456Z,4.40
2023-02-01T07:46:12.620Z,4.40
2023-02-01T07:48:40.244Z,4.40
2023-02-01T07:51:14.241Z,4.40
2023-02-01T07:53:42.107Z,4.50
2023-02-01T07:56:27.703Z,4.50
2023-02-01T07:58:57.158Z,4.50
2023-02-01T08:01:27.853Z,4.50
2023-02-01T08:04:01.937Z,4.60
2023-02-01T08:06:32.411Z,4.60
2023-02-01T08:09:00.515Z,4.60
2023-02-01T08:11:28.490Z,4.70
2023-02-01T08:13:56.100Z,4.70
2023-02-01T08:16:24.733Z,4.80
2023-02-01T08:18:53.554Z,4.80
2023-02-01T08:21:25.343Z,4.80
2023-02-01T08:23:53.248Z,4.90
2023-02-01T08:26:26.908Z,4.90
2023-02-01T08:28:58.247Z,4.90
2023-02-01T08:31:28.743Z,5.00
2023-02-01T08:34:00.275Z,5.00
2023-02-01T08:36:30.343Z,5.00
2023-02-01T08:38:58.311Z,5.00
2023-02-01T08:41:30.341Z,5.00
2023-02-01T08:43:58.946Z,5.00
2023-02-01T08:46:26.622Z,5.00
2023-02-01T08:48:54.236Z,5.00
2023-02-01T08:51:24.165Z,5.00
2023-02-01T08:53:52.448Z,5.00
2023-02-01T08:56:20.753Z,5.10
2023-02-01T08:58:48.283Z,5.30
2023-02-01T09:01:18.126Z,5.30
2023-02-01T09:03:46.655Z,5.30
2023-02-01T09:06:16.187Z,5.30
2023-02-01T09:08:44.229Z,5.30
2023-02-01T09:11:18.631Z,5.30
2023-02-01T09:13:46.480Z,5.40
2023-02-01T09:16:14.211Z,5.40
2023-02-01T09:18:50.658Z,5.40
2023-02-01T09:21:23.796Z,5.30
2023-02-01T09:23:53.063Z,5.30
2023-02-01T09:26:26.448Z,5.30
2023-02-01T09:28:58.692Z,5.30
2023-02-01T09:31:26.287Z,5.40
2023-02-01T09:33:53.742Z,5.40
2023-02-01T09:36:21.014Z,5.50
2023-02-01T09:38:52.865Z,5.50
2023-02-01T09:41:27.324Z,5.50
2023-02-01T09:44:43.983Z,5.40
2023-02-01T09:47:19.512Z,5.30
2023-02-01T09:50:03.836Z,5.40
2023-02-01T09:53:44.915Z,5.30
2023-02-01T09:56:36.653Z,4.90
2023-02-01T09:59:20.208Z,4.30
2023-02-01T10:01:47.851Z,3.70
2023-02-01T10:04:18.132Z,3.20
2023-02-01T10:07:19.010Z,3.10
2023-02-01T10:10:06.146Z,3.20
2023-02-01T10:12:44.344Z,3.10
2023-02-01T10:15:39.143Z,2.90
2023-02-01T10:18:44.135Z,3.00
2023-02-01T10:21:24.220Z,3.10
2023-02-01T10:24:00.974Z,3.40
2023-02-01T10:26:39.438Z,3.60
2023-02-01T10:29:26.249Z,3.70
2023-02-01T10:31:54.042Z,3.80
2023-02-01T10:34:29.216Z,3.90
2023-02-01T10:37:27.931Z,4.10
2023-02-01T10:39:58.827Z,4.50
2023-02-01T10:42:29.989Z,4.80
2023-02-01T10:45:01.001Z,5.00
2023-02-01T10:47:28.583Z,5.30
2023-02-01T10:50:48.435Z,5.50
2023-02-01T10:53:53.687Z,5.50
2023-02-01T10:56:27.692Z,5.30
2023-02-01T10:59:04.565Z,5.20
2023-02-01T11:01:39.072Z,5.10
2023-02-01T11:04:14.440Z,5.00
2023-02-01T11:07:13.074Z,4.90
2023-02-01T11:09:42.133Z,4.90
2023-02-01T11:12:38.616Z,5.00
2023-02-01T11:15:23.685Z,5.20
2023-02-01T11:17:53.807Z,5.40
2023-02-01T11:20:42.355Z,5.50
2023-02-01T11:23:19.790Z,5.70
2023-02-01T11:26:24.773Z,5.90
2023-02-01T11:29:04.950Z,6.00
2023-02-01T11:31:34.669Z,6.00
2023-02-01T11:34:15.211Z,5.90
2023-02-01T11:36:43.168Z,6.10
2023-02-01T11:39:23.853Z,6.20
2023-02-01T11:42:14.157Z,6.30
2023-02-01T11:44:47.235Z,6.30
2023-02-01T11:47:25.394Z,6.50
2023-02-01T11:50:01.941Z,6.50
2023-02-01T11:53:05.370Z,6.60
2023-02-01T11:56:05.710Z,6.80
2023-02-01T11:59:00.729Z,6.70
2023-02-01T12:01:51.632Z,6.60
2023-02-01T12:05:00.221Z,6.50
2023-02-01T12:07:56.176Z,6.60
2023-02-01T12:10:53.350Z,6.50
2023-02-01T12:13:45.068Z,6.20
2023-02-01T12:16:38.153Z,6.10
2023-02-01T12:19:36.480Z,6.50
2023-02-01T12:22:19.882Z,6.70
2023-02-01T12:25:04.372Z,7.30
2023-02-01T12:27:47.671Z,7.70
2023-02-01T12:30:47.080Z,8.10
2023-02-01T12:33:38.463Z,8.30
2023-02-01T12:36:28.321Z,8.50
2023-02-01T12:39:14.150Z,8.80
2023-02-01T12:41:59.653Z,9.00
2023-02-01T12:44:33.214Z,9.40
2023-02-01T12:47:25.769Z,9.50
2023-02-01T12:50:26.602Z,9.20
2023-02-01T12:53:33.587Z,8.90
2023-02-01T12:56:12.459Z,8.30
2023-02-01T12:58:49.922Z,7.70
2023-02-01T13:01:53.425Z,7.40
2023-02-01T13:04:39.886Z,7.30
2023-02-01T13:07:27.250Z,7.20
2023-02-01T13:10:07.136Z,7.00
2023-02-01T13:12:53.174Z,7.00
2023-02-01T13:15:32.761Z,7.00
2023-02-01T13:18:06.861Z,6.90
2023-02-01T13:20:55.852Z,6.90
2023-02-01T13:23:32.079Z,6.80
2023-02-01T13:26:00.142Z,6.80
2023-02-01T13:28:29.721Z,6.70
2023-02-01T13:31:40.479Z,6.60
2023-02-01T13:34:55.275Z,6.40
2023-02-01T13:37:52.037Z,5.20
2023-02-01T13:40:39.048Z,4.00
2023-02-01T13:43:27.472Z,3.40
2023-02-01T13:46:02.981Z,2.90
2023-02-01T13:48:41.830Z,2.60
2023-02-01T13:51:09.458Z,2.50
2023-02-01T13:53:40.565Z,2.40
2023-02-01T13:56:19.729Z,2.40
2023-02-01T13:58:49.709Z,2.30
2023-02-01T14:01:23.024Z,2.30
2023-02-01T14:03:53.968Z,2.30
2023-02-01T14:06:27.644Z,2.40
2023-02-01T14:09:15.559Z,2.40
2023-02-01T14:11:46.308Z,2.40
2023-02-01T14:14:16.524Z,2.50
2023-02-01T14:16:53.385Z,2.50
2023-02-01T14:19:28.137Z,2.50
2023-02-01T14:22:27.026Z,2.50
2023-02-01T14:24:58.858Z,2.60
2023-02-01T14:27:31.032Z,2.70
2023-02-01T14:30:03.052Z,2.80
2023-02-01T14:32:39.489Z,3.00
2023-02-01T14:35:37.304Z,3.10
2023-02-01T14:38:05.158Z,3.20
2023-02-01T14:40:33.007Z,3.30
2023-02-01T14:43:00.242Z,3.40
2023-02-01T14:45:28.451Z,3.50
2023-02-01T14:48:16.580Z,3.50
2023-02-01T14:50:48.243Z,3.60
2023-02-01T14:53:33.860Z,3.60
2023-02-01T14:56:05.446Z,3.60
2023-02-01T14:58:50.142Z,3.70
2023-02-01T15:01:28.049Z,3.70
2023-02-01T15:04:22.843Z,3.60
2023-02-01T15:06:58.466Z,3.60
2023-02-01T15:09:53.382Z,3.50
2023-02-01T15:12:28.574Z,3.60
2023-02-01T15:15:13.965Z,3.60
2023-02-01T15:17:42.213Z,3.60
2023-02-01T15:20:20.964Z,3.70
2023-02-01T15:23:01.732Z,3.70
2023-02-01T15:25:37.011Z,3.70
2023-02-01T15:28:04.348Z,3.90
2023-02-01T15:30:35.419Z,3.90
2023-02-01T15:33:18.634Z,4.00
2023-02-01T15:35:49.751Z,4.00
2023-02-01T15:38:25.865Z,4.10
2023-02-01T15:41:10.301Z,4.20
2023-02-01T15:43:44.359Z,4.20
2023-02-01T15:46:20.820Z,4.30
2023-02-01T15:48:53.015Z,4.20
2023-02-01T15:51:26.418Z,4.20
2023-02-01T15:53:58.552Z,4.20
2023-02-01T15:56:40.549Z,4.10
2023-02-01T15:59:19.101Z,4.00
2023-02-01T16:01:46.724Z,3.90
2023-02-01T16:04:25.154Z,3.90
2023-02-01T16:07:04.462Z,3.80
2023-02-01T16:09:55.404Z,3.80
2023-02-01T16:12:39.159Z,3.80
2023-02-01T16:15:07.132Z,3.70
2023-02-01T16:17:34.318Z,3.70
2023-02-01T16:20:01.783Z,3.70
2023-02-01T16:22:28.898Z,3.70
2023-02-01T16:24:56.416Z,3.70
2023-02-01T16:27:23.760Z,3.70
2023-02-01T16:29:51.336Z,3.70
2023-02-01T16:32:21.639Z,3.80
2023-02-01T16:34:50.028Z,3.80
2023-02-01T16:37:23.251Z,3.90
2023-02-01T16:39:50.751Z,3.90
2023-02-01T16:42:18.573Z,3.90
2023-02-01T16:44:45.721Z,4.00
2023-02-01T16:47:18.784Z,4.00
2023-02-01T16:49:46.680Z,4.10
2023-02-01T16:52:24.468Z,4.20
2023-02-01T16:54:52.187Z,4.30
2023-02-01T16:57:23.440Z,4.40
2023-02-01T16:59:50.879Z,4.40
2023-02-01T17:02:20.930Z,4.50
2023-02-01T17:04:49.618Z,4.50
2023-02-01T17:07:19.616Z,4.60
2023-02-01T17:09:47.761Z,4.60
2023-02-01T17:12:25.850Z,4.70
2023-02-01T17:14:53.541Z,4.70
2023-02-01T17:17:32.765Z,4.80
2023-02-01T17:20:06.909Z,4.90
2023-02-01T17:22:35.003Z,4.90
2023-02-01T17:25:02.253Z,5.00
2023-02-01T17:27:30.263Z,4.90
2023-02-01T17:29:57.566Z,4.90
2023-02-01T17:32:26.556Z,4.90
2023-02-01T17:34:53.828Z,4.90
2023-02-01T17:37:31.916Z,5.50
2023-02-01T17:39:59.555Z,5.00
2023-02-01T17:42:29.399Z,5.00
2023-02-01T17:45:01.300Z,5.10
2023-02-01T17:47:28.548Z,5.10
2023-02-01T17:49:58.196Z,5.10
2023-02-01T17:52:26.307Z,5.10
2023-02-01T17:54:54.211Z,5.10
2023-02-01T17:57:21.946Z,5.00
2023-02-01T17:59:49.208Z,5.00
2023-02-01T18:02:22.543Z,5.00
2023-02-01T18:04:51.237Z,5.00
2023-02-01T18:07:18.860Z,5.00
2023-02-01T18:09:46.073Z,5.00
2023-02-01T18:12:23.084Z,5.00
2023-02-01T18:14:50.199Z,5.00
2023-02-01T18:17:17.382Z,5.00
2023-02-01T18:19:44.718Z,5.00
2023-02-01T18:22:22.443Z,5.00
2023-02-01T18:24:49.581Z,5.00
2023-02-01T18:27:16.739Z,5.00
2023-02-01T18:29:44.142Z,5.10
2023-02-01T18:32:11.260Z,5.10
2023-02-01T18:34:38.394Z,5.10
2023-02-01T18:37:05.687Z,5.10
2023-02-01T18:39:32.894Z,5.10
2023-02-01T18:42:00.110Z,5.10
2023-02-01T18:44:27.259Z,5.10
2023-02-01T18:46:57.639Z,5.10
2023-02-01T18:49:24.779Z,5.10
2023-02-01T18:51:53.050Z,5.20
2023-02-01T18:54:20.291Z,5.20
2023-02-01T18:56:47.514Z,5.30
2023-02-01T18:59:14.676Z,5.20
2023-02-01T19:01:41.818Z,5.30
2023-02-01T19:04:21.672Z,5.30
2023-02-01T19:06:51.247Z,5.20
2023-02-01T19:09:18.380Z,5.30
2023-02-01T19:11:45.579Z,5.30
2023-02-01T19:14:12.695Z,5.40
2023-02-01T19:16:39.999Z,5.40
2023-02-01T19:19:07.453Z,5.40
2023-02-01T19:21:34.691Z,5.40
2023-02-01T19:24:01.825Z,5.40
2023-02-01T19:26:29.263Z,5.50
2023-02-01T19:28:58.813Z,5.50
2023-02-01T19:31:26.145Z,5.40
2023-02-01T19:33:54.880Z,5.70
2023-02-01T19:36:22.075Z,5.40
2023-02-01T19:38:49.303Z,5.50
2023-02-01T19:41:18.779Z,5.40
2023-02-01T19:43:46.520Z,5.40
2023-02-01T19:46:21.685Z,5.30
2023-02-01T19:48:48.864Z,5.30
2023-02-01T19:51:16.025Z,5.30
2023-02-01T19:53:43.227Z,5.40
2023-02-01T19:56:13.388Z,5.40
2023-02-01T19:58:40.474Z,5.40
2023-02-01T20:01:10.269Z,5.40
2023-02-01T20:03:37.370Z,5.40
2023-02-01T20:06:07.289Z,5.40
2023-02-01T20:08:34.542Z,5.50
2023-02-01T20:11:01.754Z,5.50
2023-02-01T20:13:29.064Z,5.50
2023-02-01T20:15:59.560Z,5.50
2023-02-01T20:18:29.855Z,5.50
2023-02-01T20:20:58.535Z,5.50
2023-02-01T20:23:27.633Z,5.50
2023-02-01T20:25:57.273Z,5.50
2023-02-01T20:28:28.495Z,5.60
2023-02-01T20:30:56.677Z,5.60
2023-02-01T20:33:25.560Z,5.60
2023-02-01T20:35:52.635Z,5.60
2023-02-01T20:38:19.975Z,5.50
2023-02-01T20:40:50.153Z,5.50
2023-02-01T20:43:17.446Z,5.60
2023-02-01T20:45:45.356Z,5.60
2023-02-01T20:48:12.660Z,5.60
2023-02-01T20:50:39.780Z,5.60
2023-02-01T20:53:06.947Z,5.60
2023-02-01T20:55:34.421Z,5.60
2023-02-01T20:58:01.616Z,5.60
2023-02-01T21:00:29.364Z,5.60
2023-02-01T21:02:56.808Z,5.60
2023-02-01T21:05:25.677Z,5.60
2023-02-01T21:07:53.154Z,5.60
2023-02-01T21:10:20.205Z,5.60
2023-02-01T21:12:49.008Z,5.60
2023-02-01T21:15:17.308Z,5.60
2023-02-01T21:17:44.661Z,5.60
2023-02-01T21:20:13.006Z,5.60
2023-02-01T21:22:40.156Z,5.60
2023-02-01T21:25:08.007Z,6.80
2023-02-01T21:27:35.481Z,5.50
2023-02-01T21:30:05.882Z,5.60
2023-02-01T21:32:35.427Z,5.60
2023-02-01T21:35:03.812Z,5.60
2023-02-01T21:37:31.123Z,5.60
2023-02-01T21:39:58.535Z,5.60
2023-02-01T21:42:26.584Z,5.60
2023-02-01T21:44:55.153Z,5.60
2023-02-01T21:47:25.551Z,5.60
2023-02-01T21:49:54.172Z,5.70
2023-02-01T21:52:22.030Z,5.70
2023-02-01T21:54:49.374Z,5.70
2023-02-01T21:57:16.456Z,5.70
2023-02-01T21:59:44.300Z,5.60
2023-02-01T22:02:17.415Z,5.50
2023-02-01T22:04:44.989Z,5.40
2023-02-01T22:07:12.376Z,5.40
2023-02-01T22:09:39.817Z,5.40
2023-02-01T22:12:08.518Z,5.40
2023-02-01T22:14:35.614Z,5.50
2023-02-01T22:17:02.755Z,5.50
2023-02-01T22:19:29.935Z,5.60
2023-02-01T22:21:57.064Z,5.60
2023-02-01T22:24:24.199Z,5.70
2023-02-01T22:26:51.358Z,5.70
2023-02-01T22:29:19.375Z,5.70
2023-02-01T22:31:47.008Z,5.70
2023-02-01T22:34:15.523Z,5.80
2023-02-01T22:36:43.405Z,5.80
2023-02-01T22:39:11.046Z,5.70
2023-02-01T22:41:38.350Z,5.80
2023-02-01T22:44:05.863Z,5.80
2023-02-01T22:46:33.261Z,5.70
2023-02-01T22:49:01.252Z,5.90
2023-02-01T22:51:31.127Z,6.00
2023-02-01T22:53:59.364Z,6.10
2023-02-01T22:56:35.621Z,6.10
2023-02-01T22:59:07.265Z,6.10
2023-02-01T23:01:35.462Z,6.10
2023-02-01T23:04:06.172Z,6.10
2023-02-01T23:06:34.055Z,6.10
2023-02-01T23:09:11.348Z,6.10
2023-02-01T23:11:38.988Z,6.10
2023-02-01T23:14:06.801Z,6.20
2023-02-01T23:16:34.032Z,6.10
2023-02-01T23:19:01.432Z,6.10
2023-02-01T23:21:28.789Z,6.20
2023-02-01T23:24:01.042Z,6.10
2023-02-01T23:26:31.001Z,6.00
2023-02-01T23:28:59.378Z,6.10
2023-02-01T23:31:30.859Z,6.10
2023-02-01T23:34:00.238Z,6.10
2023-02-01T23:36:29.049Z,6.10
2023-02-01T23:38:56.415Z,6.10
2023-02-01T23:41:24.852Z,6.00
2023-02-01T23:43:57.753Z,6.00
2023-02-01T23:46:35.214Z,6.00
2023-02-01T23:49:04.446Z,5.90
2023-02-01T23:51:32.136Z,5.90
2023-02-01T23:53:59.655Z,5.90
2023-02-01T23:56:33.605Z,5.80
2023-02-01T23:59:03.280Z,5.80
